Time;durP1;ratioP1;P1;durP2;ratioP2;P2;SDS_P1;SDS_P2;PMS_P1;PMS_P2;Temp;Humidity;BMP_temperature;BMP_pressure;BME280_temperature;BME280_humidity;BME280_pressure;Samples;Min_cycle;Max_cycle;Signal;HPM_P1;HPM_P2
2023/12/21 00:02:00;;;;;;;18.15;4.25;;;11.20;99.90;;;;;;5127554;27;20464;-71
2023/12/21 00:04:25;;;;;;;25.52;4.60;;;11.20;99.90;;;;;;5131029;27;20038;-71
2023/12/21 00:06:51;;;;;;;19.40;4.38;;;11.20;99.90;;;;;;5133937;27;20027;-71
2023/12/21 00:09:17;;;;;;;24.58;5.07;;;11.30;99.90;;;;;;5134257;27;20722;-71
2023/12/21 00:11:42;;;;;;;21.52;4.10;;;11.30;99.90;;;;;;5134210;27;20421;-71
2023/12/21 00:14:08;;;;;;;21.70;4.25;;;11.30;99.90;;;;;;5134077;27;20037;-71
2023/12/21 00:16:33;;;;;;;22.80;4.85;;;11.20;99.90;;;;;;5131612;27;20031;-71
2023/12/21 00:18:59;;;;;;;25.52;5.07;;;11.20;99.90;;;;;;5132821;27;20031;-71
2023/12/21 00:21:24;;;;;;;21.45;4.97;;;11.20;99.90;;;;;;5133691;27;20024;-70
2023/12/21 00:23:50;;;;;;;22.80;4.50;;;11.20;99.90;;;;;;5133393;27;20026;-70
2023/12/21 00:26:15;;;;;;;28.35;4.70;;;11.20;99.90;;;;;;5133551;27;20631;-71
2023/12/21 00:28:41;;;;;;;20.98;4.40;;;11.30;99.90;;;;;;5133402;27;20122;-71
2023/12/21 00:31:06;;;;;;;23.52;5.32;;;11.20;99.90;;;;;;5133615;27;20023;-71
2023/12/21 00:33:32;;;;;;;25.33;4.35;;;11.20;99.90;;;;;;5130710;27;20691;-71
2023/12/21 00:35:57;;;;;;;24.88;5.15;;;11.20;99.90;;;;;;5130396;27;20039;-71
2023/12/21 00:38:23;;;;;;;22.88;5.10;;;11.30;99.90;;;;;;5127119;27;20089;-71
2023/12/21 00:40:48;;;;;;;19.80;5.05;;;11.20;99.90;;;;;;5105087;27;20019;-70
2023/12/21 00:43:14;;;;;;;26.77;5.13;;;11.20;99.90;;;;;;5131520;27;20019;-71
2023/12/21 00:45:40;;;;;;;21.92;4.43;;;11.30;99.90;;;;;;5123077;27;20636;-71
2023/12/21 00:48:06;;;;;;;23.27;4.75;;;11.30;99.90;;;;;;5133280;27;20057;-71
2023/12/21 00:50:31;;;;;;;20.50;4.25;;;11.30;99.90;;;;;;5132875;27;20145;-71
2023/12/21 00:52:57;;;;;;;25.65;4.97;;;11.30;99.90;;;;;;5131718;27;20579;-71
2023/12/21 00:55:22;;;;;;;27.17;4.22;;;11.30;99.90;;;;;;5132728;27;20575;-71
2023/12/21 00:57:48;;;;;;;20.15;4.90;;;11.20;99.90;;;;;;5132030;27;20051;-70
2023/12/21 01:00:14;;;;;;;21.05;4.32;;;11.20;99.90;;;;;;5131252;27;20062;-71
2023/12/21 01:02:39;;;;;;;26.08;4.70;;;11.20;99.90;;;;;;5132879;27;20055;-71
2023/12/21 01:05:06;;;;;;;19.63;4.60;;;11.30;99.90;;;;;;5132949;27;20080;-72
2023/12/21 01:07:31;;;;;;;23.65;5.00;;;11.30;99.90;;;;;;5131003;27;20035;-70
2023/12/21 01:09:57;;;;;;;22.15;4.55;;;11.20;99.90;;;;;;5126097;27;20506;-71
2023/12/21 01:12:23;;;;;;;26.45;5.18;;;11.20;99.90;;;;;;5127779;27;20028;-70
2023/12/21 01:14:49;;;;;;;28.15;5.07;;;11.20;99.90;;;;;;5132532;27;20021;-71
2023/12/21 01:17:14;;;;;;;21.52;4.68;;;11.30;99.90;;;;;;5131059;27;20023;-71
2023/12/21 01:19:40;;;;;;;24.52;5.40;;;11.30;99.90;;;;;;5132992;27;20055;-70
2023/12/21 01:22:05;;;;;;;22.48;5.03;;;11.30;99.90;;;;;;5132328;27;20027;-71
2023/12/21 01:24:31;;;;;;;23.05;5.45;;;11.30;99.90;;;;;;5132496;27;20539;-71
2023/12/21 01:26:56;;;;;;;25.60;5.10;;;11.30;99.90;;;;;;5112631;27;20027;-70
2023/12/21 01:29:22;;;;;;;26.67;5.43;;;11.20;99.90;;;;;;5132242;27;20030;-70
2023/12/21 01:31:48;;;;;;;20.90;4.40;;;11.20;99.90;;;;;;5132119;27;20034;-70
2023/12/21 01:34:13;;;;;;;25.42;4.70;;;11.20;99.90;;;;;;5130625;27;20102;-70
2023/12/21 01:36:39;;;;;;;21.05;4.47;;;11.30;99.90;;;;;;5132339;27;20077;-70
2023/12/21 01:39:06;;;;;;;23.50;4.45;;;11.20;99.90;;;;;;5132325;27;20392;-70
2023/12/21 01:41:32;;;;;;;21.23;4.72;;;11.20;99.90;;;;;;5127188;27;20039;-71
2023/12/21 01:43:58;;;;;;;24.50;4.82;;;11.20;99.90;;;;;;5118488;27;20117;-70
2023/12/21 01:46:24;;;;;;;22.20;4.75;;;11.20;99.90;;;;;;5129347;28;20062;-70
2023/12/21 01:48:50;;;;;;;25.60;4.75;;;11.20;99.90;;;;;;5132177;28;20074;-70
2023/12/21 01:51:16;;;;;;;25.45;4.78;;;11.20;99.90;;;;;;5130895;28;20456;-71
2023/12/21 01:53:43;;;;;;;24.05;5.53;;;11.20;99.90;;;;;;5132241;28;20073;-71
2023/12/21 01:56:08;;;;;;;23.77;4.68;;;11.10;99.90;;;;;;5132081;28;20027;-71
2023/12/21 01:58:35;;;;;;;25.00;4.90;;;11.10;99.90;;;;;;5131395;28;20096;-71
2023/12/21 02:01:03;;;;;;;25.17;5.22;;;11.10;99.90;;;;;;5130938;28;20026;-71
2023/12/21 02:03:30;;;;;;;21.15;4.93;;;11.10;99.90;;;;;;5132288;28;20094;-71
2023/12/21 02:05:55;;;;;;;23.75;4.80;;;11.10;99.90;;;;;;5132233;28;20091;-71
2023/12/21 02:08:21;;;;;;;23.27;4.53;;;11.10;99.90;;;;;;5130913;27;20460;-71
2023/12/21 02:10:46;;;;;;;22.88;4.82;;;11.20;99.90;;;;;;5136338;27;20035;-71
2023/12/21 02:13:12;;;;;;;23.88;5.22;;;11.20;99.90;;;;;;5135886;27;20030;-71
2023/12/21 02:15:38;;;;;;;19.30;4.72;;;11.20;99.90;;;;;;5136205;27;20019;-71
2023/12/21 02:18:07;;;;;;;24.35;4.80;;;11.20;99.90;;;;;;5127968;27;20460;-71
2023/12/21 02:20:33;;;;;;;21.92;5.05;;;11.20;99.90;;;;;;5133279;27;20027;-70
2023/12/21 02:23:03;;;;;;;20.98;4.50;;;11.20;99.90;;;;;;5134372;27;20019;-70
2023/12/21 02:25:29;;;;;;;24.85;4.90;;;11.10;99.90;;;;;;5135810;27;20011;-70
2023/12/21 02:27:55;;;;;;;26.58;4.70;;;11.10;99.90;;;;;;5135646;27;20039;-70
2023/12/21 02:30:20;;;;;;;22.60;4.75;;;11.10;99.90;;;;;;5135970;27;20023;-70
2023/12/21 02:32:46;;;;;;;21.13;4.72;;;11.10;99.90;;;;;;5135841;27;20100;-70
2023/12/21 02:35:12;;;;;;;24.95;4.60;;;11.10;99.90;;;;;;5134483;27;20107;-71
2023/12/21 02:37:37;;;;;;;21.35;5.00;;;11.10;99.90;;;;;;5135738;27;20063;-70
2023/12/21 02:40:03;;;;;;;23.00;4.30;;;11.10;99.90;;;;;;5134620;27;20452;-71
2023/12/21 02:42:28;;;;;;;21.60;4.40;;;11.20;99.90;;;;;;5133958;27;20027;-70
2023/12/21 02:44:54;;;;;;;21.77;4.30;;;11.20;99.90;;;;;;5132118;27;20023;-71
2023/12/21 02:47:19;;;;;;;21.52;4.45;;;11.20;99.90;;;;;;5135382;27;20039;-71
2023/12/21 02:49:45;;;;;;;20.58;4.35;;;11.20;99.90;;;;;;5135459;27;20038;-71
2023/12/21 02:52:11;;;;;;;24.80;4.35;;;11.20;99.90;;;;;;5130522;27;20027;-71
2023/12/21 02:54:36;;;;;;;24.75;5.13;;;11.20;99.90;;;;;;5134984;27;20031;-71
2023/12/21 02:57:02;;;;;;;22.92;4.60;;;11.20;99.90;;;;;;5135219;27;20384;-70
2023/12/21 02:59:27;;;;;;;21.33;5.35;;;11.10;99.90;;;;;;5135301;27;20528;-71
2023/12/21 03:01:53;;;;;;;26.20;4.95;;;11.10;99.90;;;;;;5135252;27;20023;-70
2023/12/21 03:04:19;;;;;;;21.58;4.72;;;11.10;99.90;;;;;;5135033;27;20031;-71
2023/12/21 03:06:44;;;;;;;26.92;4.68;;;11.10;99.90;;;;;;5133047;27;20023;-71
2023/12/21 03:09:10;;;;;;;28.48;5.10;;;11.10;99.90;;;;;;5132420;27;20038;-71
2023/12/21 03:11:36;;;;;;;23.13;4.95;;;11.10;99.90;;;;;;5134204;27;20433;-71
2023/12/21 03:14:02;;;;;;;23.80;4.65;;;11.20;99.90;;;;;;5134962;27;20023;-71
2023/12/21 03:16:28;;;;;;;25.05;5.38;;;11.10;99.90;;;;;;5134602;27;20106;-70
2023/12/21 03:18:53;;;;;;;25.33;5.22;;;11.10;99.90;;;;;;5129630;27;20130;-71
2023/12/21 03:21:19;;;;;;;22.70;4.70;;;11.10;99.90;;;;;;5133092;27;20481;-71
2023/12/21 03:23:45;;;;;;;26.10;5.45;;;11.10;99.90;;;;;;5133934;27;20026;-71
2023/12/21 03:26:10;;;;;;;23.80;4.97;;;11.10;99.90;;;;;;5132093;27;20089;-70
2023/12/21 03:28:36;;;;;;;32.38;5.60;;;11.10;99.90;;;;;;5134321;27;20035;-71
2023/12/21 03:31:07;;;;;;;24.38;4.28;;;11.00;99.90;;;;;;5134715;27;20035;-71
2023/12/21 03:33:32;;;;;;;24.02;5.28;;;11.00;99.90;;;;;;5135053;27;20019;-71
2023/12/21 03:35:58;;;;;;;19.45;4.75;;;11.00;99.90;;;;;;5134512;27;20474;-71
2023/12/21 03:38:23;;;;;;;25.88;4.85;;;11.00;99.90;;;;;;5134713;27;20027;-71
2023/12/21 03:40:49;;;;;;;19.73;4.30;;;11.00;99.90;;;;;;5133183;27;20066;-71
2023/12/21 03:43:14;;;;;;;25.20;4.65;;;11.00;99.90;;;;;;5133494;27;20020;-71
2023/12/21 03:45:41;;;;;;;27.33;5.07;;;11.00;99.90;;;;;;5133935;27;20031;-71
2023/12/21 03:48:08;;;;;;;21.45;4.30;;;11.00;99.90;;;;;;5134508;27;20047;-71
2023/12/21 03:50:34;;;;;;;21.70;4.82;;;11.00;99.90;;;;;;5134741;27;20098;-71
2023/12/21 03:52:59;;;;;;;28.23;4.57;;;11.10;99.90;;;;;;5120317;27;20106;-71
2023/12/21 03:55:25;;;;;;;26.67;4.88;;;11.10;99.90;;;;;;5126579;27;20102;-71
2023/12/21 03:57:51;;;;;;;23.98;4.82;;;11.10;99.90;;;;;;5133999;27;20416;-71
2023/12/21 04:00:18;;;;;;;25.25;4.72;;;11.10;99.90;;;;;;5113554;27;20460;-71
2023/12/21 04:02:44;;;;;;;21.77;4.65;;;11.20;99.90;;;;;;5133930;27;20026;-71
2023/12/21 04:05:10;;;;;;;24.27;5.30;;;11.20;99.90;;;;;;5134051;27;20039;-71
2023/12/21 04:07:35;;;;;;;25.27;5.13;;;11.20;99.90;;;;;;5133734;27;20130;-71
2023/12/21 04:10:01;;;;;;;23.70;4.68;;;11.20;99.90;;;;;;5132617;27;20705;-71
2023/12/21 04:12:27;;;;;;;22.08;4.38;;;11.20;99.90;;;;;;5134038;27;20028;-71
2023/12/21 04:14:52;;;;;;;18.65;4.03;;;11.20;99.90;;;;;;5133735;27;20391;-71
2023/12/21 04:17:18;;;;;;;19.63;4.45;;;11.10;99.90;;;;;;5132968;27;20471;-72
2023/12/21 04:19:43;;;;;;;22.23;4.43;;;11.20;99.90;;;;;;5132362;27;20102;-71
2023/12/21 04:22:09;;;;;;;20.45;4.72;;;11.10;99.90;;;;;;5133983;27;20027;-71
2023/12/21 04:24:34;;;;;;;18.95;4.47;;;11.10;99.90;;;;;;5133788;27;20039;-71
2023/12/21 04:27:00;;;;;;;24.60;4.70;;;11.20;99.90;;;;;;5133672;27;20031;-71
2023/12/21 04:29:25;;;;;;;25.40;4.93;;;11.20;99.90;;;;;;5133003;27;20039;-71
2023/12/21 04:31:51;;;;;;;22.35;6.03;;;11.20;99.90;;;;;;5132288;27;20027;-71
2023/12/21 04:34:16;;;;;;;23.58;4.75;;;11.20;99.90;;;;;;5130746;27;20030;-70
2023/12/21 04:36:42;;;;;;;24.98;4.85;;;11.20;99.90;;;;;;5115816;27;20054;-71
2023/12/21 04:39:08;;;;;;;25.77;5.00;;;11.20;99.90;;;;;;5132356;27;20723;-71
2023/12/21 04:41:33;;;;;;;19.65;4.82;;;11.20;99.90;;;;;;5133212;27;20064;-72
2023/12/21 04:43:59;;;;;;;25.75;5.15;;;11.30;99.90;;;;;;5133083;27;20023;-71
2023/12/21 04:46:24;;;;;;;27.75;5.00;;;11.30;99.90;;;;;;5132374;27;20132;-71
2023/12/21 04:48:50;;;;;;;20.52;4.40;;;11.20;99.90;;;;;;5133318;27;20431;-71
2023/12/21 04:51:16;;;;;;;16.95;4.43;;;11.30;99.90;;;;;;5124356;27;20027;-71
2023/12/21 04:53:42;;;;;;;23.83;4.85;;;11.20;99.90;;;;;;5123982;27;20699;-71
2023/12/21 04:56:07;;;;;;;20.85;3.90;;;11.30;99.90;;;;;;5133141;27;20050;-70
2023/12/21 04:58:33;;;;;;;26.17;5.43;;;11.30;99.90;;;;;;5133044;27;20123;-72
2023/12/21 05:00:58;;;;;;;20.58;4.28;;;11.20;99.90;;;;;;5128112;27;20028;-72
2023/12/21 05:03:24;;;;;;;21.40;5.15;;;11.20;99.90;;;;;;5112818;28;20028;-71
2023/12/21 05:05:50;;;;;;;22.95;4.85;;;11.30;99.90;;;;;;5099983;27;20072;-71
2023/12/21 05:08:15;;;;;;;22.55;4.70;;;11.30;99.90;;;;;;5130529;27;20034;-71
2023/12/21 05:10:41;;;;;;;23.60;4.82;;;11.30;99.90;;;;;;5132938;27;20023;-71
2023/12/21 05:13:08;;;;;;;26.85;4.90;;;11.30;99.90;;;;;;5132994;27;20053;-72
2023/12/21 05:15:33;;;;;;;18.20;4.22;;;11.30;99.90;;;;;;5128118;27;20027;-71
2023/12/21 05:17:59;;;;;;;19.20;3.75;;;11.30;99.90;;;;;;5122291;27;20099;-71
2023/12/21 05:20:25;;;;;;;22.95;4.38;;;11.40;99.90;;;;;;5133248;27;20027;-72
2023/12/21 05:22:50;;;;;;;18.75;4.22;;;11.40;99.90;;;;;;5132672;27;20042;-72
2023/12/21 05:25:16;;;;;;;20.70;5.43;;;11.30;99.90;;;;;;5131197;27;20107;-71
2023/12/21 05:27:41;;;;;;;21.02;4.20;;;11.30;99.90;;;;;;5131704;27;20207;-71
2023/12/21 05:30:08;;;;;;;19.90;4.18;;;11.30;99.90;;;;;;5132938;27;20035;-72
2023/12/21 05:32:33;;;;;;;25.38;5.20;;;11.30;99.90;;;;;;5131224;27;20030;-71
2023/12/21 05:34:59;;;;;;;18.17;4.45;;;11.20;99.90;;;;;;5132870;27;20035;-71
2023/12/21 05:37:26;;;;;;;19.52;4.80;;;11.20;99.90;;;;;;5132110;27;20027;-72
2023/12/21 05:39:52;;;;;;;24.10;4.35;;;11.20;99.90;;;;;;5132934;27;20126;-72
2023/12/21 05:42:17;;;;;;;23.35;4.32;;;11.20;99.90;;;;;;5123261;27;20111;-72
2023/12/21 05:44:43;;;;;;;26.67;5.57;;;11.10;99.90;;;;;;5120388;27;20110;-71
2023/12/21 05:47:08;;;;;;;24.67;5.28;;;11.10;99.90;;;;;;5130785;27;20391;-71
2023/12/21 05:49:34;;;;;;;17.92;5.13;;;11.20;99.90;;;;;;5132337;28;20076;-71
2023/12/21 05:52:00;;;;;;;19.63;5.10;;;11.20;99.90;;;;;;5132078;28;20019;-71
2023/12/21 05:54:27;;;;;;;20.85;5.15;;;11.10;99.90;;;;;;5122857;28;20028;-71
2023/12/21 05:56:53;;;;;;;18.80;4.18;;;11.10;99.90;;;;;;5132154;28;20131;-72
2023/12/21 05:59:19;;;;;;;22.92;5.50;;;11.10;99.90;;;;;;5131826;28;20122;-71
2023/12/21 06:01:45;;;;;;;21.83;4.63;;;11.10;99.90;;;;;;5132176;28;20027;-71
2023/12/21 06:04:11;;;;;;;22.00;5.15;;;11.10;99.90;;;;;;5132480;28;20106;-72
2023/12/21 06:06:37;;;;;;;24.02;4.78;;;11.00;99.90;;;;;;5131662;28;20043;-72
2023/12/21 06:09:05;;;;;;;23.02;4.65;;;11.10;99.90;;;;;;5132033;28;20586;-72
2023/12/21 06:11:31;;;;;;;22.42;5.18;;;11.10;99.90;;;;;;5130313;28;20030;-72
2023/12/21 06:13:56;;;;;;;21.40;5.05;;;11.10;99.90;;;;;;5132196;28;20031;-71
2023/12/21 06:16:22;;;;;;;24.98;4.93;;;11.10;99.90;;;;;;5131912;28;20135;-72
2023/12/21 06:18:48;;;;;;;24.55;5.32;;;11.10;99.90;;;;;;5131144;28;20039;-72
2023/12/21 06:21:14;;;;;;;25.20;4.88;;;11.10;99.90;;;;;;5130856;28;20072;-73
2023/12/21 06:23:39;;;;;;;23.85;4.97;;;11.00;99.90;;;;;;5130096;28;20031;-70
2023/12/21 06:26:05;;;;;;;22.42;5.03;;;11.10;99.90;;;;;;5129015;28;20035;-71
2023/12/21 06:28:30;;;;;;;25.67;5.63;;;11.10;99.90;;;;;;5129122;28;20035;-70
2023/12/21 06:30:56;;;;;;;27.42;5.43;;;11.10;99.90;;;;;;5130574;28;20030;-71
2023/12/21 06:33:22;;;;;;;22.15;4.85;;;11.10;99.90;;;;;;5124791;28;20369;-72
2023/12/21 06:35:47;;;;;;;24.55;4.78;;;11.10;99.90;;;;;;5128089;28;20084;-72
2023/12/21 06:38:13;;;;;;;24.27;5.30;;;11.10;99.90;;;;;;5129178;28;20031;-71
2023/12/21 06:40:38;;;;;;;26.30;5.90;;;11.10;99.90;;;;;;5131724;28;20053;-71
2023/12/21 06:43:04;;;;;;;26.35;4.85;;;11.10;99.90;;;;;;5131739;28;20090;-71
2023/12/21 06:45:29;;;;;;;24.33;5.45;;;11.00;99.90;;;;;;5132042;28;20057;-71
2023/12/21 06:47:57;;;;;;;23.70;4.88;;;11.10;99.90;;;;;;5131881;28;20106;-72
2023/12/21 06:50:23;;;;;;;28.10;5.22;;;11.10;99.90;;;;;;5122547;28;20031;-71
2023/12/21 06:52:48;;;;;;;27.25;5.53;;;11.10;99.90;;;;;;5131819;28;20098;-72
2023/12/21 06:55:14;;;;;;;32.50;6.05;;;11.10;99.90;;;;;;5131151;27;20106;-71
2023/12/21 06:57:39;;;;;;;26.50;5.65;;;11.10;99.90;;;;;;5135444;27;20055;-71
2023/12/21 07:00:06;;;;;;;27.15;5.15;;;11.10;99.90;;;;;;5135557;27;20027;-72
2023/12/21 07:02:32;;;;;;;25.73;5.85;;;11.10;99.90;;;;;;5134966;27;20031;-73
2023/12/21 07:04:58;;;;;;;32.25;5.43;;;11.00;99.90;;;;;;5135319;27;20095;-71
2023/12/21 07:07:23;;;;;;;23.10;5.32;;;11.00;99.90;;;;;;5134354;27;20031;-71
2023/12/21 07:09:49;;;;;;;29.92;5.40;;;10.90;99.90;;;;;;5133969;27;20031;-70
2023/12/21 07:12:15;;;;;;;21.50;5.32;;;10.90;99.90;;;;;;5134818;27;20122;-71
2023/12/21 07:14:40;;;;;;;29.52;6.15;;;10.90;99.90;;;;;;5134446;27;20504;-72
2023/12/21 07:17:07;;;;;;;28.73;5.50;;;10.80;99.90;;;;;;5133434;27;20062;-72
2023/12/21 07:19:32;;;;;;;27.95;4.95;;;10.80;99.90;;;;;;5134718;27;20411;-72
2023/12/21 07:21:58;;;;;;;30.48;6.13;;;10.70;99.90;;;;;;5135028;27;20023;-71
2023/12/21 07:24:23;;;;;;;27.85;5.50;;;10.80;99.90;;;;;;5126982;27;20117;-72
2023/12/21 07:26:49;;;;;;;21.65;4.80;;;10.80;99.90;;;;;;5130172;27;20100;-72
2023/12/21 07:29:14;;;;;;;31.58;5.60;;;10.80;99.90;;;;;;5134187;27;20409;-71
2023/12/21 07:31:40;;;;;;;27.63;5.55;;;10.80;99.90;;;;;;5134312;27;20031;-73
2023/12/21 07:34:06;;;;;;;31.45;5.82;;;10.80;99.90;;;;;;5133084;27;20726;-72
2023/12/21 07:36:32;;;;;;;26.73;5.03;;;10.80;99.90;;;;;;5132443;27;20095;-72
2023/12/21 07:38:57;;;;;;;23.88;5.38;;;10.80;99.90;;;;;;5125533;27;20118;-71
2023/12/21 07:41:23;;;;;;;25.33;5.13;;;10.90;99.90;;;;;;5133348;27;20511;-73
2023/12/21 07:43:48;;;;;;;32.35;5.68;;;10.90;99.90;;;;;;5134662;27;20038;-72
2023/12/21 07:46:14;;;;;;;25.98;5.88;;;10.90;99.90;;;;;;5133845;27;20476;-72
2023/12/21 07:48:40;;;;;;;27.38;5.25;;;10.90;99.90;;;;;;5124253;27;20192;-71
2023/12/21 07:51:10;;;;;;;23.35;5.40;;;11.00;99.90;;;;;;5133365;27;20030;-70
2023/12/21 07:53:36;;;;;;;28.00;4.85;;;11.00;99.90;;;;;;5131574;27;20470;-71
2023/12/21 07:56:02;;;;;;;26.90;4.90;;;11.00;99.90;;;;;;5132356;27;20059;-71
2023/12/21 07:58:28;;;;;;;29.73;5.50;;;11.00;99.90;;;;;;5107946;27;20381;-71
2023/12/21 08:00:53;;;;;;;25.50;5.25;;;11.00;99.90;;;;;;5128431;27;20030;-72
2023/12/21 08:03:19;;;;;;;26.05;5.00;;;11.10;99.90;;;;;;5133070;27;20031;-71
2023/12/21 08:05:45;;;;;;;20.00;3.92;;;11.10;99.90;;;;;;5131678;27;20027;-71
2023/12/21 08:08:11;;;;;;;30.80;5.53;;;11.20;99.90;;;;;;5131150;27;20035;-73
2023/12/21 08:10:36;;;;;;;25.23;5.10;;;11.30;99.90;;;;;;5133225;27;20027;-72
2023/12/21 08:13:02;;;;;;;28.88;5.57;;;11.30;99.90;;;;;;5129842;27;20023;-72
2023/12/21 08:15:28;;;;;;;21.08;4.95;;;11.30;99.90;;;;;;5130546;27;20023;-70
2023/12/21 08:17:56;;;;;;;22.13;5.65;;;11.30;99.90;;;;;;5131191;27;20392;-72
2023/12/21 08:20:22;;;;;;;23.55;4.60;;;11.40;99.90;;;;;;5130554;27;20034;-72
2023/12/21 08:22:48;;;;;;;22.90;4.82;;;11.40;99.90;;;;;;5133236;27;20099;-71
2023/12/21 08:25:13;;;;;;;27.10;5.25;;;11.40;99.90;;;;;;5132410;27;20492;-73
2023/12/21 08:27:43;;;;;;;22.88;4.47;;;11.40;99.90;;;;;;5117158;27;20485;-73
2023/12/21 08:30:10;;;;;;;25.67;4.43;;;11.50;99.90;;;;;;5132000;27;20015;-72
2023/12/21 08:32:35;;;;;;;29.95;5.03;;;11.50;99.90;;;;;;5131981;27;20071;-72
2023/12/21 08:35:02;;;;;;;23.30;4.38;;;11.40;99.90;;;;;;5135186;27;20027;-73
2023/12/21 08:37:27;;;;;;;23.15;4.10;;;11.50;99.90;;;;;;5130809;27;20128;-71
2023/12/21 08:39:53;;;;;;;26.33;4.70;;;11.50;99.90;;;;;;5131157;27;20032;-72
2023/12/21 08:42:19;;;;;;;23.85;4.97;;;11.50;99.90;;;;;;5129832;27;20020;-72
2023/12/21 08:44:44;;;;;;;22.02;4.68;;;11.50;99.90;;;;;;5127905;27;20075;-72
2023/12/21 08:47:10;;;;;;;23.20;4.07;;;11.60;99.90;;;;;;5129023;27;20092;-72
2023/12/21 08:49:35;;;;;;;25.85;5.10;;;11.60;99.90;;;;;;5130833;27;20023;-72
2023/12/21 08:52:01;;;;;;;27.55;5.03;;;11.70;99.90;;;;;;5132675;27;20391;-72
2023/12/21 08:54:27;;;;;;;23.88;4.75;;;11.80;99.90;;;;;;5120849;27;20368;-72
2023/12/21 08:56:52;;;;;;;23.10;3.55;;;11.80;99.90;;;;;;5126466;27;20034;-72
2023/12/21 08:59:19;;;;;;;23.00;4.72;;;11.80;99.90;;;;;;5129435;27;20047;-72
2023/12/21 09:01:44;;;;;;;22.45;4.03;;;11.80;99.90;;;;;;5119983;27;20038;-72
2023/12/21 09:04:10;;;;;;;23.05;4.63;;;11.90;99.90;;;;;;5130604;27;20113;-71
2023/12/21 09:06:36;;;;;;;23.17;4.70;;;11.90;99.90;;;;;;5123761;27;20031;-72
2023/12/21 09:09:02;;;;;;;21.17;3.90;;;11.90;99.90;;;;;;5130597;27;20031;-72
2023/12/21 09:11:28;;;;;;;20.83;3.97;;;11.90;99.90;;;;;;5132211;27;20756;-72
2023/12/21 09:13:55;;;;;;;24.20;4.20;;;12.00;99.90;;;;;;5132176;27;20094;-71
2023/12/21 09:16:24;;;;;;;21.05;4.30;;;12.00;99.90;;;;;;5132475;27;20059;-72
2023/12/21 09:18:52;;;;;;;24.02;4.22;;;12.00;99.90;;;;;;5131121;27;20058;-72
2023/12/21 09:21:17;;;;;;;26.42;4.43;;;12.00;99.90;;;;;;5127656;27;20536;-72
2023/12/21 09:23:43;;;;;;;26.08;4.40;;;12.00;99.90;;;;;;5131832;27;20102;-72
2023/12/21 09:26:10;;;;;;;28.90;4.63;;;12.00;99.90;;;;;;5131765;27;20076;-71
2023/12/21 09:28:36;;;;;;;22.70;4.60;;;12.00;99.90;;;;;;5131916;27;20856;-72
2023/12/21 09:31:03;;;;;;;27.15;5.03;;;12.00;99.90;;;;;;5131592;27;20035;-72
2023/12/21 09:33:33;;;;;;;28.05;4.70;;;12.00;99.90;;;;;;5128046;27;20015;-72
2023/12/21 09:36:02;;;;;;;17.23;3.97;;;12.00;99.90;;;;;;5128287;27;20027;-73
2023/12/21 09:38:31;;;;;;;26.02;5.38;;;12.10;99.90;;;;;;5131252;27;20055;-72
2023/12/21 09:40:57;;;;;;;22.17;4.53;;;12.10;99.90;;;;;;5121444;27;20099;-72
2023/12/21 09:43:23;;;;;;;25.55;4.63;;;12.10;99.90;;;;;;5132072;27;20042;-72
2023/12/21 09:45:51;;;;;;;23.65;4.55;;;12.20;99.90;;;;;;5132238;27;20019;-72
2023/12/21 09:48:18;;;;;;;24.38;4.28;;;12.20;99.90;;;;;;5131856;27;20038;-72
2023/12/21 09:50:48;;;;;;;27.63;5.57;;;12.20;99.90;;;;;;5131728;28;20403;-72
2023/12/21 09:53:16;;;;;;;27.33;5.53;;;12.20;99.90;;;;;;5131158;28;20031;-72
2023/12/21 09:55:43;;;;;;;23.13;4.15;;;12.20;99.90;;;;;;5125738;28;20027;-71
2023/12/21 09:58:12;;;;;;;23.00;4.25;;;12.20;99.90;;;;;;5108929;28;20047;-71
2023/12/21 10:00:41;;;;;;;23.08;4.57;;;12.20;99.90;;;;;;5131137;28;20058;-71
2023/12/21 10:03:07;;;;;;;21.95;4.80;;;12.20;99.90;;;;;;5117987;28;20460;-72
2023/12/21 10:05:33;;;;;;;27.70;5.43;;;12.30;99.90;;;;;;5127309;27;20027;-72
2023/12/21 10:07:59;;;;;;;18.08;3.78;;;12.30;99.90;;;;;;5126815;27;20035;-72
2023/12/21 10:10:25;;;;;;;23.88;5.47;;;12.40;99.90;;;;;;5128664;27;20077;-72
2023/12/21 10:12:52;;;;;;;21.80;4.40;;;12.40;99.90;;;;;;5126354;27;20028;-72
2023/12/21 10:15:18;;;;;;;23.33;5.43;;;12.50;99.90;;;;;;5130483;27;20488;-72
2023/12/21 10:17:43;;;;;;;23.20;4.78;;;12.40;99.90;;;;;;5129157;28;20054;-72
2023/12/21 10:20:12;;;;;;;24.33;5.00;;;12.40;99.90;;;;;;5131236;28;20019;-72
2023/12/21 10:22:42;;;;;;;22.75;4.47;;;12.40;99.90;;;;;;5123260;27;20050;-72
2023/12/21 10:25:09;;;;;;;32.08;5.15;;;12.30;99.90;;;;;;5130988;28;20023;-72
2023/12/21 10:27:35;;;;;;;19.30;3.90;;;12.30;99.90;;;;;;5130085;28;20038;-72
2023/12/21 10:30:01;;;;;;;24.52;5.13;;;12.20;99.90;;;;;;5127130;27;20068;-72
2023/12/21 10:32:29;;;;;;;25.55;4.82;;;12.20;99.90;;;;;;5133017;27;20479;-73
2023/12/21 10:34:58;;;;;;;29.63;4.93;;;12.20;99.90;;;;;;5135206;27;20060;-74
2023/12/21 10:37:26;;;;;;;27.80;4.55;;;12.20;99.90;;;;;;5134496;27;20027;-73
2023/12/21 10:39:52;;;;;;;21.55;4.15;;;12.30;99.90;;;;;;5134717;27;20124;-72
2023/12/21 10:42:19;;;;;;;22.17;4.35;;;12.30;99.90;;;;;;5115954;27;20370;-73
2023/12/21 10:44:47;;;;;;;21.77;5.20;;;12.40;99.90;;;;;;5134473;27;20078;-72
2023/12/21 10:47:14;;;;;;;25.83;4.60;;;12.50;99.90;;;;;;5134053;27;20019;-72
2023/12/21 10:49:40;;;;;;;23.55;4.95;;;12.50;99.90;;;;;;5132269;27;20035;-72
2023/12/21 10:52:07;;;;;;;24.63;4.70;;;12.50;99.90;;;;;;5132109;27;20476;-72
2023/12/21 10:54:33;;;;;;;22.77;5.13;;;12.50;99.90;;;;;;5135344;27;20487;-73
2023/12/21 10:56:59;;;;;;;27.23;4.18;;;12.40;99.90;;;;;;5135141;27;20027;-72
2023/12/21 10:59:26;;;;;;;24.20;4.85;;;12.40;99.90;;;;;;5135532;27;20055;-72
2023/12/21 11:01:53;;;;;;;25.63;5.18;;;12.40;99.90;;;;;;5135354;27;20144;-72
2023/12/21 11:04:24;;;;;;;18.85;3.72;;;12.50;99.90;;;;;;5133725;27;20023;-72
2023/12/21 11:06:50;;;;;;;23.33;4.90;;;12.50;99.90;;;;;;5119666;27;20064;-72
2023/12/21 11:09:19;;;;;;;24.90;4.72;;;12.50;99.90;;;;;;5134934;27;20063;-72
2023/12/21 11:11:46;;;;;;;23.95;4.90;;;12.40;99.90;;;;;;5134851;27;20106;-71
2023/12/21 11:14:12;;;;;;;24.73;4.78;;;12.40;99.90;;;;;;5135138;27;20172;-71
2023/12/21 11:16:43;;;;;;;33.08;5.70;;;12.40;99.90;;;;;;5134607;27;20026;-72
2023/12/21 11:19:11;;;;;;;25.05;5.40;;;12.40;99.90;;;;;;5134641;27;20031;-72
2023/12/21 11:21:38;;;;;;;20.98;4.38;;;12.40;99.90;;;;;;5130898;27;20027;-72
2023/12/21 11:24:04;;;;;;;25.95;4.72;;;12.40;99.90;;;;;;5129679;27;20034;-72
2023/12/21 11:26:30;;;;;;;23.90;5.53;;;12.40;99.90;;;;;;5133327;27;20471;-72
2023/12/21 11:29:07;;;;;;;26.48;5.00;;;12.40;99.90;;;;;;5134779;27;20039;-72
2023/12/21 11:31:40;;;;;;;21.70;4.35;;;12.30;99.90;;;;;;5134535;27;20027;-72
2023/12/21 11:34:10;;;;;;;28.58;5.15;;;12.30;99.90;;;;;;5134519;27;20461;-72
2023/12/21 11:36:36;;;;;;;30.77;5.30;;;12.40;99.90;;;;;;5134783;27;20072;-72
2023/12/21 11:39:07;;;;;;;26.75;4.85;;;12.30;99.90;;;;;;5131159;27;20023;-72
2023/12/21 11:41:33;;;;;;;21.70;5.20;;;12.30;99.90;;;;;;5134142;27;20019;-72
2023/12/21 11:44:03;;;;;;;26.15;5.18;;;12.30;99.90;;;;;;5132925;27;20381;-72
2023/12/21 11:46:35;;;;;;;28.60;5.63;;;12.30;99.90;;;;;;5131682;27;20023;-72
2023/12/21 11:49:01;;;;;;;33.10;6.10;;;12.30;99.90;;;;;;5128398;27;20126;-72
2023/12/21 11:51:27;;;;;;;26.85;5.78;;;12.30;99.90;;;;;;5133860;27;20312;-72
2023/12/21 11:53:52;;;;;;;25.27;5.00;;;12.30;99.90;;;;;;5129148;27;20059;-73
2023/12/21 11:56:19;;;;;;;27.67;4.80;;;12.30;99.90;;;;;;5132550;27;20023;-72
2023/12/21 11:58:47;;;;;;;19.60;4.35;;;12.30;99.90;;;;;;5132422;27;20050;-73
2023/12/21 12:01:23;;;;;;;29.17;4.90;;;12.40;99.90;;;;;;5134254;27;20031;-71
2023/12/21 12:03:48;;;;;;;24.63;5.50;;;12.50;99.90;;;;;;5134337;27;20030;-72
2023/12/21 12:06:14;;;;;;;19.92;4.65;;;12.50;99.90;;;;;;5134073;27;20027;-71
2023/12/21 12:08:42;;;;;;;22.85;5.00;;;12.50;99.90;;;;;;5134111;27;20050;-71
2023/12/21 12:11:07;;;;;;;29.73;5.22;;;12.60;99.90;;;;;;5131793;27;20031;-72
2023/12/21 12:13:33;;;;;;;26.77;5.78;;;12.60;99.90;;;;;;5131188;27;20031;-73
2023/12/21 12:15:59;;;;;;;30.40;5.65;;;12.60;99.90;;;;;;5133816;27;20046;-73
2023/12/21 12:18:24;;;;;;;26.75;5.60;;;12.60;99.90;;;;;;5133299;27;20441;-72
2023/12/21 12:20:51;;;;;;;30.60;5.63;;;12.60;99.90;;;;;;5132699;27;20026;-71
2023/12/21 12:23:18;;;;;;;24.55;5.95;;;12.60;99.90;;;;;;5133942;27;20024;-73
2023/12/21 12:25:44;;;;;;;29.65;5.97;;;12.60;99.90;;;;;;5133309;27;20027;-73
2023/12/21 12:28:10;;;;;;;25.95;5.70;;;12.60;99.90;;;;;;5130378;27;20393;-73
2023/12/21 12:30:37;;;;;;;27.23;5.43;;;12.50;99.90;;;;;;5131495;27;20102;-73